sensor_id;sensor_type;location;lat;lon;timestamp;P1;durP1;ratioP1;P2;durP2;ratioP2
18818;SDS011;9537;45.594;9.294;2022-11-28T00:00:12;23.93;;;16.10;;
18818;SDS011;9537;45.594;9.294;2022-11-28T00:01:16;20.13;;;15.17;;
18818;SDS011;9537;45.594;9.294;2022-11-28T00:02:19;20.57;;;15.57;;
18818;SDS011;9537;45.594;9.294;2022-11-28T00:03:22;21.87;;;15.83;;
18818;SDS011;9537;45.594;9.294;2022-11-28T00:04:24;21.30;;;15.93;;
18818;SDS011;9537;45.594;9.294;2022-11-28T00:05:26;20.23;;;15.90;;
18818;SDS011;9537;45.594;9.294;2022-11-28T00:06:27;20.47;;;14.93;;
18818;SDS011;9537;45.594;9.294;2022-11-28T00:07:29;20.53;;;14.87;;
18818;SDS011;9537;45.594;9.294;2022-11-28T00:08:30;21.13;;;15.53;;
18818;SDS011;9537;45.594;9.294;2022-11-28T00:09:33;23.53;;;15.80;;
18818;SDS011;9537;45.594;9.294;2022-11-28T00:10:36;22.97;;;16.10;;
18818;SDS011;9537;45.594;9.294;2022-11-28T00:11:40;25.43;;;16.97;;
18818;SDS011;9537;45.594;9.294;2022-11-28T00:12:42;23.47;;;16.10;;
18818;SDS011;9537;45.594;9.294;2022-11-28T00:13:44;20.20;;;15.87;;
18818;SDS011;9537;45.594;9.294;2022-11-28T00:14:46;22.97;;;16.17;;
18818;SDS011;9537;45.594;9.294;2022-11-28T00:15:54;22.63;;;15.87;;
18818;SDS011;9537;45.594;9.294;2022-11-28T00:16:57;23.10;;;16.13;;
18818;SDS011;9537;45.594;9.294;2022-11-28T00:17:59;23.93;;;16.87;;
18818;SDS011;9537;45.594;9.294;2022-11-28T00:19:00;23.43;;;16.73;;
18818;SDS011;9537;45.594;9.294;2022-11-28T00:20:04;23.60;;;15.53;;
18818;SDS011;9537;45.594;9.294;2022-11-28T00:21:06;21.10;;;15.80;;
18818;SDS011;9537;45.594;9.294;2022-11-28T00:22:10;23.67;;;15.90;;
18818;SDS011;9537;45.594;9.294;2022-11-28T00:23:11;21.90;;;16.20;;
18818;SDS011;9537;45.594;9.294;2022-11-28T00:24:13;21.63;;;16.47;;
18818;SDS011;9537;45.594;9.294;2022-11-28T00:25:14;18.77;;;15.13;;
18818;SDS011;9537;45.594;9.294;2022-11-28T00:26:17;26.93;;;17.53;;
18818;SDS011;9537;45.594;9.294;2022-11-28T00:27:20;20.80;;;15.43;;
18818;SDS011;9537;45.594;9.294;2022-11-28T00:28:22;21.77;;;15.40;;
18818;SDS011;9537;45.594;9.294;2022-11-28T00:29:23;20.90;;;17.07;;
18818;SDS011;9537;45.594;9.294;2022-11-28T00:30:25;21.07;;;15.77;;
18818;SDS011;9537;45.594;9.294;2022-11-28T00:31:28;20.43;;;15.93;;
18818;SDS011;9537;45.594;9.294;2022-11-28T00:32:32;19.63;;;14.73;;
18818;SDS011;9537;45.594;9.294;2022-11-28T00:33:33;21.20;;;15.37;;
18818;SDS011;9537;45.594;9.294;2022-11-28T00:34:34;23.90;;;15.67;;
18818;SDS011;9537;45.594;9.294;2022-11-28T00:35:36;25.73;;;17.00;;
18818;SDS011;9537;45.594;9.294;2022-11-28T00:36:37;24.67;;;16.10;;
18818;SDS011;9537;45.594;9.294;2022-11-28T00:37:40;22.67;;;16.50;;
18818;SDS011;9537;45.594;9.294;2022-11-28T00:38:41;22.00;;;15.03;;
18818;SDS011;9537;45.594;9.294;2022-11-28T00:39:43;21.60;;;16.13;;
18818;SDS011;9537;45.594;9.294;2022-11-28T00:40:44;21.00;;;15.50;;
18818;SDS011;9537;45.594;9.294;2022-11-28T00:41:46;24.80;;;16.80;;
18818;SDS011;9537;45.594;9.294;2022-11-28T00:42:48;23.63;;;16.57;;
18818;SDS011;9537;45.594;9.294;2022-11-28T00:43:50;21.60;;;15.13;;
18818;SDS011;9537;45.594;9.294;2022-11-28T00:44:51;21.23;;;15.87;;
18818;SDS011;9537;45.594;9.294;2022-11-28T00:45:53;20.97;;;15.03;;
18818;SDS011;9537;45.594;9.294;2022-11-28T00:46:56;18.70;;;15.37;;
18818;SDS011;9537;45.594;9.294;2022-11-28T00:47:58;19.87;;;14.47;;
18818;SDS011;9537;45.594;9.294;2022-11-28T00:48:58;19.90;;;14.90;;
18818;SDS011;9537;45.594;9.294;2022-11-28T00:50:00;21.50;;;16.17;;
18818;SDS011;9537;45.594;9.294;2022-11-28T00:51:04;24.30;;;16.63;;
18818;SDS011;9537;45.594;9.294;2022-11-28T00:52:07;23.50;;;15.80;;
18818;SDS011;9537;45.594;9.294;2022-11-28T00:53:10;20.93;;;15.77;;
18818;SDS011;9537;45.594;9.294;2022-11-28T00:54:10;19.13;;;15.00;;
18818;SDS011;9537;45.594;9.294;2022-11-28T00:55:12;21.87;;;15.60;;
18818;SDS011;9537;45.594;9.294;2022-11-28T00:56:14;21.13;;;14.83;;
18818;SDS011;9537;45.594;9.294;2022-11-28T00:57:18;21.37;;;16.23;;
18818;SDS011;9537;45.594;9.294;2022-11-28T00:58:19;24.63;;;16.40;;
18818;SDS011;9537;45.594;9.294;2022-11-28T00:59:21;22.50;;;15.67;;
18818;SDS011;9537;45.594;9.294;2022-11-28T01:00:22;20.87;;;14.77;;
18818;SDS011;9537;45.594;9.294;2022-11-28T01:01:25;23.57;;;16.07;;
18818;SDS011;9537;45.594;9.294;2022-11-28T01:02:29;21.00;;;15.60;;
18818;SDS011;9537;45.594;9.294;2022-11-28T01:03:31;20.90;;;16.03;;
18818;SDS011;9537;45.594;9.294;2022-11-28T01:04:32;25.03;;;15.70;;
18818;SDS011;9537;45.594;9.294;2022-11-28T01:05:38;22.40;;;16.07;;
18818;SDS011;9537;45.594;9.294;2022-11-28T01:06:40;22.23;;;16.47;;
18818;SDS011;9537;45.594;9.294;2022-11-28T01:07:43;24.90;;;16.07;;
18818;SDS011;9537;45.594;9.294;2022-11-28T01:08:44;22.03;;;16.00;;
18818;SDS011;9537;45.594;9.294;2022-11-28T01:09:46;23.70;;;16.17;;
18818;SDS011;9537;45.594;9.294;2022-11-28T01:10:48;24.07;;;16.07;;
18818;SDS011;9537;45.594;9.294;2022-11-28T01:11:50;23.20;;;16.83;;
18818;SDS011;9537;45.594;9.294;2022-11-28T01:12:53;21.03;;;15.57;;
18818;SDS011;9537;45.594;9.294;2022-11-28T01:13:54;22.27;;;15.63;;
18818;SDS011;9537;45.594;9.294;2022-11-28T01:14:57;19.77;;;15.93;;
18818;SDS011;9537;45.594;9.294;2022-11-28T01:15:58;26.40;;;15.33;;
18818;SDS011;9537;45.594;9.294;2022-11-28T01:17:00;23.70;;;16.23;;
18818;SDS011;9537;45.594;9.294;2022-11-28T01:18:04;22.17;;;16.63;;
18818;SDS011;9537;45.594;9.294;2022-11-28T01:19:05;22.27;;;15.30;;
18818;SDS011;9537;45.594;9.294;2022-11-28T01:20:08;20.73;;;15.40;;
18818;SDS011;9537;45.594;9.294;2022-11-28T01:21:09;22.30;;;15.57;;
18818;SDS011;9537;45.594;9.294;2022-11-28T01:22:11;22.30;;;16.10;;
18818;SDS011;9537;45.594;9.294;2022-11-28T01:23:12;24.10;;;16.47;;
18818;SDS011;9537;45.594;9.294;2022-11-28T01:24:14;20.30;;;16.00;;
18818;SDS011;9537;45.594;9.294;2022-11-28T01:25:15;22.40;;;16.27;;
18818;SDS011;9537;45.594;9.294;2022-11-28T01:26:19;23.03;;;16.00;;
18818;SDS011;9537;45.594;9.294;2022-11-28T01:27:21;21.03;;;15.83;;
18818;SDS011;9537;45.594;9.294;2022-11-28T01:28:23;20.63;;;15.77;;
18818;SDS011;9537;45.594;9.294;2022-11-28T01:29:24;20.73;;;15.90;;
18818;SDS011;9537;45.594;9.294;2022-11-28T01:30:26;23.10;;;16.13;;
18818;SDS011;9537;45.594;9.294;2022-11-28T01:31:28;21.23;;;15.17;;
18818;SDS011;9537;45.594;9.294;2022-11-28T01:32:31;22.17;;;15.87;;
18818;SDS011;9537;45.594;9.294;2022-11-28T01:33:33;22.30;;;14.93;;
18818;SDS011;9537;45.594;9.294;2022-11-28T01:34:35;21.47;;;15.87;;
18818;SDS011;9537;45.594;9.294;2022-11-28T01:35:36;25.40;;;16.57;;
18818;SDS011;9537;45.594;9.294;2022-11-28T01:36:38;21.10;;;16.13;;
18818;SDS011;9537;45.594;9.294;2022-11-28T01:37:40;19.77;;;15.53;;
18818;SDS011;9537;45.594;9.294;2022-11-28T01:38:41;21.23;;;16.37;;
18818;SDS011;9537;45.594;9.294;2022-11-28T01:39:44;21.90;;;15.53;;
18818;SDS011;9537;45.594;9.294;2022-11-28T01:40:45;21.20;;;16.10;;
18818;SDS011;9537;45.594;9.294;2022-11-28T01:41:47;22.80;;;16.37;;
18818;SDS011;9537;45.594;9.294;2022-11-28T01:42:48;22.67;;;16.10;;
18818;SDS011;9537;45.594;9.294;2022-11-28T01:44:01;23.23;;;16.07;;
18818;SDS011;9537;45.594;9.294;2022-11-28T01:45:09;22.20;;;15.93;;
18818;SDS011;9537;45.594;9.294;2022-11-28T01:46:13;21.87;;;15.33;;
18818;SDS011;9537;45.594;9.294;2022-11-28T01:47:16;21.07;;;15.30;;
18818;SDS011;9537;45.594;9.294;2022-11-28T01:48:22;23.70;;;16.33;;
18818;SDS011;9537;45.594;9.294;2022-11-28T01:49:28;24.50;;;16.77;;
18818;SDS011;9537;45.594;9.294;2022-11-28T01:50:33;21.43;;;15.57;;
18818;SDS011;9537;45.594;9.294;2022-11-28T01:51:36;22.20;;;15.03;;
18818;SDS011;9537;45.594;9.294;2022-11-28T01:52:40;24.60;;;16.73;;
18818;SDS011;9537;45.594;9.294;2022-11-28T01:53:45;22.37;;;15.13;;
18818;SDS011;9537;45.594;9.294;2022-11-28T01:54:48;23.63;;;15.17;;
18818;SDS011;9537;45.594;9.294;2022-11-28T01:55:54;25.33;;;16.80;;
18818;SDS011;9537;45.594;9.294;2022-11-28T01:57:00;21.53;;;15.13;;
18818;SDS011;9537;45.594;9.294;2022-11-28T01:58:05;21.47;;;15.77;;
18818;SDS011;9537;45.594;9.294;2022-11-28T01:59:07;19.90;;;15.50;;
18818;SDS011;9537;45.594;9.294;2022-11-28T02:00:12;21.07;;;16.27;;
18818;SDS011;9537;45.594;9.294;2022-11-28T02:01:16;24.77;;;16.43;;
18818;SDS011;9537;45.594;9.294;2022-11-28T02:02:19;20.73;;;14.97;;
18818;SDS011;9537;45.594;9.294;2022-11-28T02:03:26;20.83;;;15.60;;
18818;SDS011;9537;45.594;9.294;2022-11-28T02:04:35;22.60;;;16.30;;
18818;SDS011;9537;45.594;9.294;2022-11-28T02:05:36;20.50;;;15.53;;
18818;SDS011;9537;45.594;9.294;2022-11-28T02:06:39;27.53;;;16.17;;
18818;SDS011;9537;45.594;9.294;2022-11-28T02:07:41;20.37;;;15.33;;
18818;SDS011;9537;45.594;9.294;2022-11-28T02:08:44;20.73;;;15.10;;
18818;SDS011;9537;45.594;9.294;2022-11-28T02:09:45;21.30;;;16.03;;
18818;SDS011;9537;45.594;9.294;2022-11-28T02:10:51;20.47;;;15.20;;
18818;SDS011;9537;45.594;9.294;2022-11-28T02:12:08;22.77;;;15.97;;
18818;SDS011;9537;45.594;9.294;2022-11-28T02:13:23;20.73;;;15.43;;
18818;SDS011;9537;45.594;9.294;2022-11-28T02:14:43;22.20;;;15.57;;
18818;SDS011;9537;45.594;9.294;2022-11-28T02:15:59;20.93;;;14.30;;
18818;SDS011;9537;45.594;9.294;2022-11-28T02:17:29;21.77;;;15.40;;
18818;SDS011;9537;45.594;9.294;2022-11-28T02:18:47;21.03;;;14.47;;
18818;SDS011;9537;45.594;9.294;2022-11-28T02:21:56;19.93;;;14.33;;
18818;SDS011;9537;45.594;9.294;2022-11-28T02:23:02;18.73;;;14.50;;
18818;SDS011;9537;45.594;9.294;2022-11-28T02:24:24;17.83;;;13.80;;
18818;SDS011;9537;45.594;9.294;2022-11-28T02:25:54;16.97;;;14.13;;
18818;SDS011;9537;45.594;9.294;2022-11-28T02:27:31;19.43;;;13.93;;
18818;SDS011;9537;45.594;9.294;2022-11-28T02:29:05;20.13;;;14.37;;
18818;SDS011;9537;45.594;9.294;2022-11-28T02:30:28;23.20;;;15.17;;
18818;SDS011;9537;45.594;9.294;2022-11-28T02:31:55;18.40;;;14.03;;
18818;SDS011;9537;45.594;9.294;2022-11-28T02:33:13;21.97;;;15.17;;
18818;SDS011;9537;45.594;9.294;2022-11-28T02:34:25;19.13;;;14.33;;
18818;SDS011;9537;45.594;9.294;2022-11-28T02:35:33;23.00;;;14.77;;
18818;SDS011;9537;45.594;9.294;2022-11-28T02:36:39;19.13;;;13.83;;
18818;SDS011;9537;45.594;9.294;2022-11-28T02:37:49;21.83;;;14.17;;
18818;SDS011;9537;45.594;9.294;2022-11-28T02:39:02;22.33;;;15.07;;
18818;SDS011;9537;45.594;9.294;2022-11-28T02:40:13;21.13;;;14.60;;
18818;SDS011;9537;45.594;9.294;2022-11-28T02:41:23;21.90;;;15.13;;
18818;SDS011;9537;45.594;9.294;2022-11-28T02:42:35;19.80;;;14.63;;
18818;SDS011;9537;45.594;9.294;2022-11-28T02:43:46;20.93;;;14.57;;
18818;SDS011;9537;45.594;9.294;2022-11-28T02:44:54;18.50;;;13.83;;
18818;SDS011;9537;45.594;9.294;2022-11-28T02:46:05;19.53;;;14.73;;
18818;SDS011;9537;45.594;9.294;2022-11-28T02:47:15;21.93;;;15.17;;
18818;SDS011;9537;45.594;9.294;2022-11-28T02:48:24;19.97;;;14.47;;
18818;SDS011;9537;45.594;9.294;2022-11-28T02:49:31;20.27;;;14.60;;
18818;SDS011;9537;45.594;9.294;2022-11-28T02:50:38;20.23;;;14.17;;
18818;SDS011;9537;45.594;9.294;2022-11-28T02:51:44;20.83;;;14.73;;
18818;SDS011;9537;45.594;9.294;2022-11-28T02:52:52;22.83;;;15.43;;
18818;SDS011;9537;45.594;9.294;2022-11-28T02:53:57;16.73;;;13.93;;
18818;SDS011;9537;45.594;9.294;2022-11-28T02:55:00;17.83;;;14.33;;
18818;SDS011;9537;45.594;9.294;2022-11-28T02:56:03;22.57;;;14.53;;
18818;SDS011;9537;45.594;9.294;2022-11-28T02:57:05;21.30;;;15.20;;
18818;SDS011;9537;45.594;9.294;2022-11-28T02:58:08;19.63;;;13.53;;
18818;SDS011;9537;45.594;9.294;2022-11-28T02:59:19;20.87;;;14.73;;
18818;SDS011;9537;45.594;9.294;2022-11-28T03:00:32;19.73;;;14.23;;
18818;SDS011;9537;45.594;9.294;2022-11-28T03:01:35;19.23;;;13.87;;
18818;SDS011;9537;45.594;9.294;2022-11-28T03:02:40;17.90;;;13.83;;
18818;SDS011;9537;45.594;9.294;2022-11-28T03:05:18;18.23;;;13.50;;
18818;SDS011;9537;45.594;9.294;2022-11-28T03:06:26;18.10;;;13.37;;
18818;SDS011;9537;45.594;9.294;2022-11-28T03:07:43;19.90;;;14.27;;
18818;SDS011;9537;45.594;9.294;2022-11-28T03:08:58;20.85;;;15.00;;
18818;SDS011;9537;45.594;9.294;2022-11-28T03:10:17;19.27;;;14.33;;
18818;SDS011;9537;45.594;9.294;2022-11-28T03:11:26;17.93;;;13.30;;
18818;SDS011;9537;45.594;9.294;2022-11-28T03:12:47;20.20;;;14.37;;
18818;SDS011;9537;45.594;9.294;2022-11-28T03:14:00;19.13;;;13.93;;
18818;SDS011;9537;45.594;9.294;2022-11-28T03:15:08;19.03;;;13.93;;
18818;SDS011;9537;45.594;9.294;2022-11-28T03:16:13;19.97;;;14.63;;
18818;SDS011;9537;45.594;9.294;2022-11-28T03:17:26;23.13;;;14.63;;
18818;SDS011;9537;45.594;9.294;2022-11-28T03:18:40;19.77;;;13.60;;
18818;SDS011;9537;45.594;9.294;2022-11-28T03:19:52;22.10;;;14.70;;
18818;SDS011;9537;45.594;9.294;2022-11-28T03:21:00;19.63;;;13.53;;
18818;SDS011;9537;45.594;9.294;2022-11-28T03:22:09;20.63;;;13.90;;
18818;SDS011;9537;45.594;9.294;2022-11-28T03:23:22;15.80;;;13.33;;
18818;SDS011;9537;45.594;9.294;2022-11-28T03:24:33;18.00;;;13.27;;
18818;SDS011;9537;45.594;9.294;2022-11-28T03:25:43;19.37;;;13.97;;
18818;SDS011;9537;45.594;9.294;2022-11-28T03:26:56;19.37;;;13.93;;
18818;SDS011;9537;45.594;9.294;2022-11-28T03:28:05;21.83;;;14.33;;
18818;SDS011;9537;45.594;9.294;2022-11-28T03:29:14;18.27;;;13.10;;
18818;SDS011;9537;45.594;9.294;2022-11-28T03:30:21;19.10;;;14.27;;
18818;SDS011;9537;45.594;9.294;2022-11-28T03:31:30;21.90;;;14.87;;
18818;SDS011;9537;45.594;9.294;2022-11-28T03:32:36;20.13;;;13.23;;
18818;SDS011;9537;45.594;9.294;2022-11-28T03:33:42;19.97;;;13.43;;
18818;SDS011;9537;45.594;9.294;2022-11-28T03:34:47;19.13;;;13.57;;
18818;SDS011;9537;45.594;9.294;2022-11-28T03:35:55;18.33;;;14.07;;
18818;SDS011;9537;45.594;9.294;2022-11-28T03:37:02;18.87;;;14.00;;
18818;SDS011;9537;45.594;9.294;2022-11-28T03:38:10;17.23;;;13.43;;
18818;SDS011;9537;45.594;9.294;2022-11-28T03:39:17;17.77;;;13.37;;
18818;SDS011;9537;45.594;9.294;2022-11-28T03:40:22;19.20;;;14.03;;
18818;SDS011;9537;45.594;9.294;2022-11-28T03:41:28;18.30;;;13.30;;
18818;SDS011;9537;45.594;9.294;2022-11-28T03:42:34;20.47;;;13.73;;
18818;SDS011;9537;45.594;9.294;2022-11-28T03:43:40;18.43;;;12.77;;
18818;SDS011;9537;45.594;9.294;2022-11-28T03:44:46;28.03;;;13.90;;
18818;SDS011;9537;45.594;9.294;2022-11-28T03:45:52;18.87;;;13.47;;
18818;SDS011;9537;45.594;9.294;2022-11-28T03:46:57;19.93;;;13.90;;
18818;SDS011;9537;45.594;9.294;2022-11-28T03:48:02;17.80;;;13.10;;
18818;SDS011;9537;45.594;9.294;2022-11-28T03:49:10;17.67;;;13.43;;
18818;SDS011;9537;45.594;9.294;2022-11-28T03:50:16;21.80;;;14.37;;
18818;SDS011;9537;45.594;9.294;2022-11-28T03:51:23;18.13;;;13.63;;
18818;SDS011;9537;45.594;9.294;2022-11-28T03:52:30;17.00;;;12.80;;
18818;SDS011;9537;45.594;9.294;2022-11-28T03:53:38;17.80;;;13.43;;
18818;SDS011;9537;45.594;9.294;2022-11-28T03:54:47;15.77;;;12.70;;
18818;SDS011;9537;45.594;9.294;2022-11-28T03:55:56;18.53;;;12.97;;
18818;SDS011;9537;45.594;9.294;2022-11-28T03:57:02;20.37;;;13.07;;
18818;SDS011;9537;45.594;9.294;2022-11-28T03:58:10;17.80;;;12.50;;
18818;SDS011;9537;45.594;9.294;2022-11-28T03:59:20;19.93;;;13.47;;
18818;SDS011;9537;45.594;9.294;2022-11-28T04:00:26;18.27;;;12.77;;
18818;SDS011;9537;45.594;9.294;2022-11-28T04:01:28;19.60;;;12.60;;
18818;SDS011;9537;45.594;9.294;2022-11-28T04:02:36;17.20;;;12.90;;
18818;SDS011;9537;45.594;9.294;2022-11-28T04:03:43;18.53;;;12.40;;
18818;SDS011;9537;45.594;9.294;2022-11-28T04:04:54;15.80;;;12.87;;
18818;SDS011;9537;45.594;9.294;2022-11-28T04:06:04;18.00;;;12.90;;
18818;SDS011;9537;45.594;9.294;2022-11-28T04:07:17;19.70;;;13.03;;
18818;SDS011;9537;45.594;9.294;2022-11-28T04:08:24;17.93;;;12.70;;
18818;SDS011;9537;45.594;9.294;2022-11-28T04:09:32;17.23;;;13.40;;
18818;SDS011;9537;45.594;9.294;2022-11-28T04:10:41;20.53;;;13.33;;
18818;SDS011;9537;45.594;9.294;2022-11-28T04:11:46;17.23;;;12.83;;
18818;SDS011;9537;45.594;9.294;2022-11-28T04:12:54;16.90;;;12.63;;
18818;SDS011;9537;45.594;9.294;2022-11-28T04:13:59;17.70;;;12.43;;
18818;SDS011;9537;45.594;9.294;2022-11-28T04:15:08;18.17;;;12.77;;
18818;SDS011;9537;45.594;9.294;2022-11-28T04:16:17;18.57;;;12.33;;
18818;SDS011;9537;45.594;9.294;2022-11-28T04:17:24;15.40;;;12.43;;
18818;SDS011;9537;45.594;9.294;2022-11-28T04:18:33;16.80;;;12.40;;
18818;SDS011;9537;45.594;9.294;2022-11-28T04:19:44;15.33;;;12.40;;
18818;SDS011;9537;45.594;9.294;2022-11-28T04:20:51;15.67;;;11.97;;
18818;SDS011;9537;45.594;9.294;2022-11-28T04:22:02;16.43;;;12.37;;
18818;SDS011;9537;45.594;9.294;2022-11-28T04:23:07;18.30;;;12.60;;
18818;SDS011;9537;45.594;9.294;2022-11-28T04:24:14;16.90;;;12.33;;
18818;SDS011;9537;45.594;9.294;2022-11-28T04:25:21;17.50;;;12.83;;
18818;SDS011;9537;45.594;9.294;2022-11-28T04:26:26;17.23;;;12.33;;
18818;SDS011;9537;45.594;9.294;2022-11-28T04:27:33;16.80;;;12.53;;
18818;SDS011;9537;45.594;9.294;2022-11-28T04:28:38;16.60;;;11.97;;
18818;SDS011;9537;45.594;9.294;2022-11-28T04:29:41;17.63;;;13.20;;
18818;SDS011;9537;45.594;9.294;2022-11-28T04:30:47;19.80;;;12.20;;
18818;SDS011;9537;45.594;9.294;2022-11-28T04:31:52;16.33;;;12.07;;
18818;SDS011;9537;45.594;9.294;2022-11-28T04:32:58;19.53;;;12.87;;
18818;SDS011;9537;45.594;9.294;2022-11-28T04:34:03;19.57;;;13.17;;
18818;SDS011;9537;45.594;9.294;2022-11-28T04:35:08;15.03;;;12.07;;
18818;SDS011;9537;45.594;9.294;2022-11-28T04:36:13;17.10;;;12.10;;
18818;SDS011;9537;45.594;9.294;2022-11-28T04:37:19;15.93;;;11.73;;
18818;SDS011;9537;45.594;9.294;2022-11-28T04:38:22;16.73;;;12.60;;
18818;SDS011;9537;45.594;9.294;2022-11-28T04:39:27;15.80;;;12.27;;
18818;SDS011;9537;45.594;9.294;2022-11-28T04:40:33;16.73;;;12.33;;
18818;SDS011;9537;45.594;9.294;2022-11-28T04:41:40;16.43;;;12.57;;
18818;SDS011;9537;45.594;9.294;2022-11-28T04:42:47;16.50;;;12.13;;
18818;SDS011;9537;45.594;9.294;2022-11-28T04:43:53;16.60;;;12.23;;
18818;SDS011;9537;45.594;9.294;2022-11-28T04:45:01;16.87;;;12.60;;
18818;SDS011;9537;45.594;9.294;2022-11-28T04:46:08;16.57;;;12.17;;
18818;SDS011;9537;45.594;9.294;2022-11-28T04:47:12;15.10;;;11.60;;
18818;SDS011;9537;45.594;9.294;2022-11-28T04:48:15;14.53;;;11.40;;
18818;SDS011;9537;45.594;9.294;2022-11-28T04:49:16;17.70;;;12.30;;
18818;SDS011;9537;45.594;9.294;2022-11-28T04:50:18;17.87;;;12.77;;
18818;SDS011;9537;45.594;9.294;2022-11-28T04:51:29;15.37;;;12.10;;
18818;SDS011;9537;45.594;9.294;2022-11-28T04:52:37;16.93;;;11.70;;
18818;SDS011;9537;45.594;9.294;2022-11-28T04:53:45;14.77;;;11.43;;
18818;SDS011;9537;45.594;9.294;2022-11-28T04:54:52;16.93;;;12.33;;
18818;SDS011;9537;45.594;9.294;2022-11-28T04:56:00;17.60;;;12.30;;
18818;SDS011;9537;45.594;9.294;2022-11-28T04:57:09;16.83;;;13.17;;
18818;SDS011;9537;45.594;9.294;2022-11-28T04:58:15;16.37;;;12.50;;
18818;SDS011;9537;45.594;9.294;2022-11-28T04:59:23;16.53;;;12.80;;
18818;SDS011;9537;45.594;9.294;2022-11-28T05:00:26;15.33;;;11.90;;
18818;SDS011;9537;45.594;9.294;2022-11-28T05:01:28;15.67;;;12.30;;
18818;SDS011;9537;45.594;9.294;2022-11-28T05:02:32;17.53;;;12.37;;
18818;SDS011;9537;45.594;9.294;2022-11-28T05:03:35;18.23;;;11.97;;
18818;SDS011;9537;45.594;9.294;2022-11-28T05:04:37;15.93;;;12.90;;
18818;SDS011;9537;45.594;9.294;2022-11-28T05:05:40;15.33;;;12.10;;
18818;SDS011;9537;45.594;9.294;2022-11-28T05:06:45;16.70;;;12.57;;
18818;SDS011;9537;45.594;9.294;2022-11-28T05:07:47;15.43;;;12.10;;
18818;SDS011;9537;45.594;9.294;2022-11-28T05:08:48;16.17;;;12.10;;
18818;SDS011;9537;45.594;9.294;2022-11-28T05:09:50;17.30;;;11.87;;
18818;SDS011;9537;45.594;9.294;2022-11-28T05:10:51;15.43;;;11.73;;
18818;SDS011;9537;45.594;9.294;2022-11-28T05:11:53;15.43;;;11.73;;
18818;SDS011;9537;45.594;9.294;2022-11-28T05:12:54;17.33;;;12.60;;
18818;SDS011;9537;45.594;9.294;2022-11-28T05:13:56;14.57;;;11.57;;
18818;SDS011;9537;45.594;9.294;2022-11-28T05:14:57;14.50;;;11.13;;
18818;SDS011;9537;45.594;9.294;2022-11-28T05:15:59;14.10;;;10.53;;
18818;SDS011;9537;45.594;9.294;2022-11-28T05:17:00;15.40;;;10.83;;
18818;SDS011;9537;45.594;9.294;2022-11-28T05:18:02;16.87;;;11.70;;
18818;SDS011;9537;45.594;9.294;2022-11-28T05:19:03;17.37;;;11.13;;
18818;SDS011;9537;45.594;9.294;2022-11-28T05:20:06;16.20;;;11.67;;
18818;SDS011;9537;45.594;9.294;2022-11-28T05:21:07;15.10;;;11.73;;
18818;SDS011;9537;45.594;9.294;2022-11-28T05:22:11;15.90;;;11.97;;
18818;SDS011;9537;45.594;9.294;2022-11-28T05:23:12;14.33;;;10.67;;
18818;SDS011;9537;45.594;9.294;2022-11-28T05:24:14;14.50;;;11.53;;
18818;SDS011;9537;45.594;9.294;2022-11-28T05:25:15;17.50;;;12.17;;
18818;SDS011;9537;45.594;9.294;2022-11-28T05:26:17;15.60;;;11.97;;
18818;SDS011;9537;45.594;9.294;2022-11-28T05:27:21;14.57;;;11.63;;
18818;SDS011;9537;45.594;9.294;2022-11-28T05:28:22;14.93;;;11.13;;
18818;SDS011;9537;45.594;9.294;2022-11-28T05:29:24;15.77;;;11.43;;
18818;SDS011;9537;45.594;9.294;2022-11-28T05:30:25;14.33;;;11.43;;
18818;SDS011;9537;45.594;9.294;2022-11-28T05:31:27;16.17;;;12.33;;
18818;SDS011;9537;45.594;9.294;2022-11-28T05:32:28;14.27;;;11.97;;
18818;SDS011;9537;45.594;9.294;2022-11-28T05:33:31;17.30;;;11.50;;
18818;SDS011;9537;45.594;9.294;2022-11-28T05:34:32;15.83;;;11.83;;
18818;SDS011;9537;45.594;9.294;2022-11-28T05:35:37;15.57;;;10.87;;
18818;SDS011;9537;45.594;9.294;2022-11-28T05:36:38;15.77;;;11.17;;
18818;SDS011;9537;45.594;9.294;2022-11-28T05:37:42;14.60;;;10.87;;
18818;SDS011;9537;45.594;9.294;2022-11-28T05:38:43;15.37;;;11.27;;
18818;SDS011;9537;45.594;9.294;2022-11-28T05:39:45;14.47;;;10.93;;
18818;SDS011;9537;45.594;9.294;2022-11-28T05:40:46;15.87;;;11.10;;
18818;SDS011;9537;45.594;9.294;2022-11-28T05:41:48;15.20;;;11.30;;
18818;SDS011;9537;45.594;9.294;2022-11-28T05:42:49;12.80;;;10.57;;
18818;SDS011;9537;45.594;9.294;2022-11-28T05:43:51;16.57;;;11.70;;
18818;SDS011;9537;45.594;9.294;2022-11-28T05:44:52;14.77;;;10.60;;
18818;SDS011;9537;45.594;9.294;2022-11-28T05:45:55;15.63;;;11.93;;
18818;SDS011;9537;45.594;9.294;2022-11-28T05:46:56;15.07;;;11.23;;
18818;SDS011;9537;45.594;9.294;2022-11-28T05:47:58;16.33;;;11.23;;
18818;SDS011;9537;45.594;9.294;2022-11-28T05:48:59;16.87;;;11.57;;
18818;SDS011;9537;45.594;9.294;2022-11-28T05:50:02;15.90;;;11.03;;
18818;SDS011;9537;45.594;9.294;2022-11-28T05:51:04;15.37;;;11.23;;
18818;SDS011;9537;45.594;9.294;2022-11-28T05:52:06;16.90;;;10.97;;
18818;SDS011;9537;45.594;9.294;2022-11-28T05:53:09;14.20;;;11.80;;
18818;SDS011;9537;45.594;9.294;2022-11-28T05:54:12;19.27;;;10.77;;
18818;SDS011;9537;45.594;9.294;2022-11-28T05:55:13;16.37;;;11.53;;
18818;SDS011;9537;45.594;9.294;2022-11-28T05:56:15;17.97;;;11.53;;
18818;SDS011;9537;45.594;9.294;2022-11-28T05:57:18;13.80;;;11.23;;
18818;SDS011;9537;45.594;9.294;2022-11-28T05:58:20;16.57;;;11.93;;
18818;SDS011;9537;45.594;9.294;2022-11-28T05:59:21;16.07;;;11.13;;
18818;SDS011;9537;45.594;9.294;2022-11-28T06:00:23;15.80;;;11.60;;
18818;SDS011;9537;45.594;9.294;2022-11-28T06:01:25;17.57;;;11.20;;
18818;SDS011;9537;45.594;9.294;2022-11-28T06:02:29;17.67;;;11.40;;
18818;SDS011;9537;45.594;9.294;2022-11-28T06:03:31;17.67;;;11.17;;
18818;SDS011;9537;45.594;9.294;2022-11-28T06:04:33;15.83;;;11.30;;
18818;SDS011;9537;45.594;9.294;2022-11-28T06:05:34;15.57;;;11.30;;
18818;SDS011;9537;45.594;9.294;2022-11-28T06:06:40;14.27;;;10.93;;
18818;SDS011;9537;45.594;9.294;2022-11-28T06:07:41;15.73;;;10.80;;
18818;SDS011;9537;45.594;9.294;2022-11-28T06:08:44;17.03;;;12.17;;
18818;SDS011;9537;45.594;9.294;2022-11-28T06:09:46;14.53;;;11.53;;
18818;SDS011;9537;45.594;9.294;2022-11-28T06:10:54;14.63;;;11.20;;
18818;SDS011;9537;45.594;9.294;2022-11-28T06:11:56;17.67;;;11.03;;
18818;SDS011;9537;45.594;9.294;2022-11-28T06:12:59;13.97;;;10.93;;
18818;SDS011;9537;45.594;9.294;2022-11-28T06:14:00;13.43;;;10.97;;
18818;SDS011;9537;45.594;9.294;2022-11-28T06:15:03;13.67;;;10.53;;
18818;SDS011;9537;45.594;9.294;2022-11-28T06:16:06;13.03;;;10.37;;
18818;SDS011;9537;45.594;9.294;2022-11-28T06:17:08;12.00;;;9.83;;
18818;SDS011;9537;45.594;9.294;2022-11-28T06:18:09;15.37;;;11.03;;
18818;SDS011;9537;45.594;9.294;2022-11-28T06:19:12;13.00;;;10.70;;
18818;SDS011;9537;45.594;9.294;2022-11-28T06:20:13;16.40;;;10.90;;
18818;SDS011;9537;45.594;9.294;2022-11-28T06:21:15;16.00;;;11.53;;
18818;SDS011;9537;45.594;9.294;2022-11-28T06:22:16;15.87;;;11.43;;
18818;SDS011;9537;45.594;9.294;2022-11-28T06:23:18;15.57;;;10.67;;
18818;SDS011;9537;45.594;9.294;2022-11-28T06:24:20;14.67;;;10.80;;
18818;SDS011;9537;45.594;9.294;2022-11-28T06:25:23;13.40;;;10.43;;
18818;SDS011;9537;45.594;9.294;2022-11-28T06:26:25;16.77;;;11.00;;
18818;SDS011;9537;45.594;9.294;2022-11-28T06:27:28;15.47;;;10.67;;
18818;SDS011;9537;45.594;9.294;2022-11-28T06:28:29;16.57;;;11.50;;
18818;SDS011;9537;45.594;9.294;2022-11-28T06:29:32;15.97;;;11.07;;